Time;durP1;ratioP1;P1;durP2;ratioP2;P2;SDS_P1;SDS_P2;PMS_P1;PMS_P2;Temp;Humidity;BMP_temperature;BMP_pressure;BME280_temperature;BME280_humidity;BME280_pressure;Samples;Min_cycle;Max_cycle;Signal;HPM_P1;HPM_P2
2021/11/13 00:00:06;;;;;;;;;;;;;;;4.66;55.51;101373.23;117426;1183;21822;-60
2021/11/13 00:02:35;;;;;;;;;;;;;;;4.66;55.77;101374.46;117473;1179;23426;-60
2021/11/13 00:05:04;;;;;;;;;;;;;;;4.64;55.36;101373.70;117363;1185;21834;-60
2021/11/13 00:07:34;;;;;;;;;;;;;;;4.59;55.53;101374.80;117405;1183;21834;-61
2021/11/13 00:10:02;;;;;;;;;;;;;;;4.55;55.41;101379.89;117403;1182;23660;-60
2021/11/13 00:12:33;;;;;;;;;;;;;;;4.52;55.54;101381.02;117346;1183;22906;-60
2021/11/13 00:15:03;;;;;;;;;;;;;;;4.50;55.43;101381.31;117405;1186;22170;-58
2021/11/13 00:17:31;;;;;;;;;;;;;;;4.48;55.50;101378.63;117464;1183;23420;-60
2021/11/13 00:20:00;;;;;;;;;;;;;;;4.48;55.64;101377.42;117361;1185;23449;-58
2021/11/13 00:22:28;;;;;;;;;;;;;;;4.48;55.66;101377.77;117423;1179;23430;-57
2021/11/13 00:24:56;;;;;;;;;;;;;;;4.48;55.68;101379.69;117450;1185;21829;-60
2021/11/13 00:27:24;;;;;;;;;;;;;;;4.48;55.57;101382.82;117351;1184;23512;-60
2021/11/13 00:29:52;;;;;;;;;;;;;;;4.50;55.48;101382.19;117369;1185;24165;-60
2021/11/13 00:32:20;;;;;;;;;;;;;;;4.48;55.58;101386.63;117348;1185;21842;-57
2021/11/13 00:34:49;;;;;;;;;;;;;;;4.46;55.51;101385.73;117390;1185;23423;-61
2021/11/13 00:37:17;;;;;;;;;;;;;;;4.45;55.48;101384.49;117395;1186;23448;-60
2021/11/13 00:39:52;;;;;;;;;;;;;;;4.45;55.54;101386.21;117326;1185;23423;-60
2021/11/13 00:42:20;;;;;;;;;;;;;;;4.43;55.60;101387.54;117417;1185;23426;-57
2021/11/13 00:44:48;;;;;;;;;;;;;;;4.41;55.44;101387.67;117433;1182;21839;-58
2021/11/13 00:47:16;;;;;;;;;;;;;;;4.39;55.51;101383.62;117494;1186;23042;-58
2021/11/13 00:49:45;;;;;;;;;;;;;;;4.37;55.40;101388.23;117431;1185;23457;-58
2021/11/13 00:52:13;;;;;;;;;;;;;;;4.33;55.33;101383.60;117415;1186;21848;-58
2021/11/13 00:54:41;;;;;;;;;;;;;;;4.28;55.48;101381.39;117432;1185;23431;-58
2021/11/13 00:57:10;;;;;;;;;;;;;;;4.25;55.60;101379.89;117452;1182;23525;-60
2021/11/13 00:59:38;;;;;;;;;;;;;;;4.25;55.51;101384.23;117400;1185;23545;-58
2021/11/13 01:02:07;;;;;;;;;;;;;;;4.23;55.48;101382.78;117424;1185;22596;-60
2021/11/13 01:04:35;;;;;;;;;;;;;;;4.24;55.68;101381.92;117342;1185;22675;-57
2021/11/13 01:07:22;;;;;;;;;;;;;;;4.22;55.58;101379.28;117339;1182;23445;-60
2021/11/13 01:09:50;;;;;;;;;;;;;;;4.22;55.50;101378.94;117375;1185;23059;-60
2021/11/13 01:12:19;;;;;;;;;;;;;;;4.22;55.61;101379.27;117398;1182;23422;-57
2021/11/13 01:14:47;;;;;;;;;;;;;;;4.21;55.52;101379.94;117359;1179;22927;-61
2021/11/13 01:17:30;;;;;;;;;;;;;;;4.22;55.57;101378.77;117429;1183;23465;-60
2021/11/13 01:20:05;;;;;;;;;;;;;;;4.20;55.74;101379.22;117405;1176;23534;-60
2021/11/13 01:22:52;;;;;;;;;;;;;;;4.21;55.50;101379.59;117457;1183;23523;-58
2021/11/13 01:25:21;;;;;;;;;;;;;;;4.18;55.68;101381.80;117308;1186;21989;-58
2021/11/13 01:28:09;;;;;;;;;;;;;;;4.17;55.63;101382.45;117357;1185;24231;-60
2021/11/13 01:30:37;;;;;;;;;;;;;;;4.17;55.61;101381.77;117435;1184;23423;-60
2021/11/13 01:33:05;;;;;;;;;;;;;;;4.17;55.73;101380.02;117410;1184;22359;-57
2021/11/13 01:35:53;;;;;;;;;;;;;;;4.15;55.73;101377.20;117344;1186;21848;-58
2021/11/13 01:38:22;;;;;;;;;;;;;;;4.16;55.69;101377.56;117355;1183;23469;-58
2021/11/13 01:40:50;;;;;;;;;;;;;;;4.15;55.59;101377.52;117345;1183;23453;-59
2021/11/13 01:43:18;;;;;;;;;;;;;;;4.12;55.56;101381.45;117474;1185;23455;-60
2021/11/13 01:45:47;;;;;;;;;;;;;;;4.12;55.72;101381.25;117434;1185;22717;-60
2021/11/13 01:48:16;;;;;;;;;;;;;;;4.15;55.51;101377.19;117399;1185;22357;-58
2021/11/13 01:50:44;;;;;;;;;;;;;;;4.17;55.82;101376.02;117414;1185;23430;-58
2021/11/13 01:53:13;;;;;;;;;;;;;;;4.19;55.63;101379.19;117491;1186;21866;-60
2021/11/13 01:55:41;;;;;;;;;;;;;;;4.19;55.58;101378.50;117581;1185;21839;-58
2021/11/13 01:58:12;;;;;;;;;;;;;;;4.12;55.41;101374.84;117534;1186;23422;-58
2021/11/13 02:00:45;;;;;;;;;;;;;;;4.15;55.44;101372.66;117437;1183;23450;-61
2021/11/13 02:03:16;;;;;;;;;;;;;;;4.21;55.44;101368.63;117446;1184;23993;-58
2021/11/13 02:05:45;;;;;;;;;;;;;;;4.21;55.59;101374.73;117388;1179;21915;-60
2021/11/13 02:08:13;;;;;;;;;;;;;;;4.11;55.51;101374.80;117377;1186;21834;-60
2021/11/13 02:10:41;;;;;;;;;;;;;;;4.10;55.68;101380.15;117405;1186;22698;-60
2021/11/13 02:13:09;;;;;;;;;;;;;;;4.17;55.51;101378.63;117425;1183;23417;-58
2021/11/13 02:15:40;;;;;;;;;;;;;;;4.19;55.38;101384.41;117396;1186;23454;-61
2021/11/13 02:18:08;;;;;;;;;;;;;;;4.14;55.36;101385.86;117513;1186;21833;-60
2021/11/13 02:20:37;;;;;;;;;;;;;;;4.12;55.45;101390.11;117540;1185;23422;-58
2021/11/13 02:23:10;;;;;;;;;;;;;;;4.15;55.52;101392.46;117613;1186;22632;-58
2021/11/13 02:25:38;;;;;;;;;;;;;;;4.13;55.30;101393.79;117504;1185;22972;-61
2021/11/13 02:28:07;;;;;;;;;;;;;;;4.11;55.38;101395.30;117530;1186;24129;-60
2021/11/13 02:30:35;;;;;;;;;;;;;;;4.11;55.26;101392.00;117510;1186;22927;-60
2021/11/13 02:33:03;;;;;;;;;;;;;;;4.09;55.40;101390.38;117379;1183;21826;-60
2021/11/13 02:35:31;;;;;;;;;;;;;;;4.07;55.31;101392.73;117544;1186;22636;-58
2021/11/13 02:38:13;;;;;;;;;;;;;;;4.05;55.48;101399.10;117553;1185;22599;-58
2021/11/13 02:40:42;;;;;;;;;;;;;;;4.04;55.52;101399.25;117666;1183;22025;-60
2021/11/13 02:43:12;;;;;;;;;;;;;;;4.04;55.37;101396.09;117519;1186;21912;-61
2021/11/13 02:45:40;;;;;;;;;;;;;;;4.02;55.17;101395.20;117569;1183;23446;-58
2021/11/13 02:48:08;;;;;;;;;;;;;;;4.02;55.39;101401.45;117517;1184;23493;-61
2021/11/13 02:50:37;;;;;;;;;;;;;;;3.99;55.42;101401.70;117588;1179;23423;-61
2021/11/13 02:53:10;;;;;;;;;;;;;;;3.97;55.34;101406.51;117537;1186;21845;-61
2021/11/13 02:55:38;;;;;;;;;;;;;;;3.94;55.31;101409.54;117546;1185;23446;-58
2021/11/13 02:58:07;;;;;;;;;;;;;;;3.92;55.37;101409.98;117542;1186;23446;-61
2021/11/13 03:00:35;;;;;;;;;;;;;;;3.89;55.38;101413.36;117424;1184;22607;-58
2021/11/13 03:03:03;;;;;;;;;;;;;;;3.86;55.38;101409.10;117432;1186;21820;-59
2021/11/13 03:05:32;;;;;;;;;;;;;;;3.82;55.46;101409.16;117389;1185;22606;-58
2021/11/13 03:08:02;;;;;;;;;;;;;;;3.80;55.47;101410.31;117414;1185;21839;-61
2021/11/13 03:10:33;;;;;;;;;;;;;;;3.78;55.60;101409.38;117499;1186;23534;-58
2021/11/13 03:13:06;;;;;;;;;;;;;;;3.77;55.49;101412.80;117409;1186;21835;-60
2021/11/13 03:15:37;;;;;;;;;;;;;;;3.68;55.58;101413.40;117422;1185;23530;-59
2021/11/13 03:18:06;;;;;;;;;;;;;;;3.70;55.60;101418.49;117473;1185;21836;-61
2021/11/13 03:20:35;;;;;;;;;;;;;;;3.67;55.49;101418.39;117567;1183;21835;-60
2021/11/13 03:23:03;;;;;;;;;;;;;;;3.58;55.62;101422.80;117436;1185;23016;-60
2021/11/13 03:25:32;;;;;;;;;;;;;;;3.55;55.94;101421.65;117505;1182;21829;-61
2021/11/13 03:28:01;;;;;;;;;;;;;;;3.54;55.88;101425.27;117501;1183;23527;-58
2021/11/13 03:30:30;;;;;;;;;;;;;;;3.55;56.03;101424.61;117534;1186;21834;-59
2021/11/13 03:32:58;;;;;;;;;;;;;;;3.62;55.85;101424.65;117641;1186;21841;-60
2021/11/13 03:35:30;;;;;;;;;;;;;;;3.67;55.95;101424.65;117567;1184;23665;-58
2021/11/13 03:38:02;;;;;;;;;;;;;;;3.73;55.86;101428.14;117574;1182;23448;-58
2021/11/13 03:40:31;;;;;;;;;;;;;;;3.71;55.78;101429.66;117447;1188;21829;-57
2021/11/13 03:42:59;;;;;;;;;;;;;;;3.71;55.69;101432.42;117409;1183;23423;-60
2021/11/13 03:45:27;;;;;;;;;;;;;;;3.71;55.68;101433.66;117582;1185;23446;-58
2021/11/13 03:47:56;;;;;;;;;;;;;;;3.73;55.80;101434.23;117468;1185;24132;-59
2021/11/13 03:50:24;;;;;;;;;;;;;;;3.72;55.95;101435.59;117546;1182;23446;-61
2021/11/13 03:52:52;;;;;;;;;;;;;;;3.71;55.86;101441.64;117477;1182;23432;-59
2021/11/13 03:55:22;;;;;;;;;;;;;;;3.70;55.67;101449.74;117465;1183;24145;-57
2021/11/13 03:57:50;;;;;;;;;;;;;;;3.71;55.75;101451.54;117410;1186;23469;-61
2021/11/13 04:00:20;;;;;;;;;;;;;;;3.72;55.84;101452.77;117358;1182;21824;-58
2021/11/13 04:02:52;;;;;;;;;;;;;;;3.74;55.65;101459.09;117337;1186;21971;-61
2021/11/13 04:05:21;;;;;;;;;;;;;;;3.73;55.73;101459.40;117354;1182;22949;-57
2021/11/13 04:07:49;;;;;;;;;;;;;;;3.73;55.69;101456.60;117397;1182;22628;-58
2021/11/13 04:10:20;;;;;;;;;;;;;;;3.70;55.75;101458.78;117395;1185;23871;-57
2021/11/13 04:12:48;;;;;;;;;;;;;;;3.69;56.00;101458.41;117405;1182;23420;-58
2021/11/13 04:15:28;;;;;;;;;;;;;;;3.68;55.90;101456.98;117354;1182;23433;-61
2021/11/13 04:17:57;;;;;;;;;;;;;;;3.70;55.96;101461.05;117498;1185;23584;-58
2021/11/13 04:20:26;;;;;;;;;;;;;;;3.70;55.98;101457.04;117423;1186;21962;-61
2021/11/13 04:22:55;;;;;;;;;;;;;;;3.74;55.68;101455.96;117435;1182;22635;-57
2021/11/13 04:25:23;;;;;;;;;;;;;;;3.74;55.90;101454.73;117328;1186;21839;-58
2021/11/13 04:27:51;;;;;;;;;;;;;;;3.67;55.97;101452.62;117375;1185;21851;-57
2021/11/13 04:30:19;;;;;;;;;;;;;;;3.64;55.99;101451.96;117460;1186;21832;-57
2021/11/13 04:32:48;;;;;;;;;;;;;;;3.67;55.86;101453.66;117450;1185;23423;-57
2021/11/13 04:35:22;;;;;;;;;;;;;;;3.68;55.92;101453.68;117591;1184;21846;-58
2021/11/13 04:37:53;;;;;;;;;;;;;;;3.67;55.84;101452.95;117415;1182;23426;-57
2021/11/13 04:40:22;;;;;;;;;;;;;;;3.67;55.94;101450.54;117461;1183;21838;-60
2021/11/13 04:42:50;;;;;;;;;;;;;;;3.67;55.90;101454.69;117383;1185;22988;-58
2021/11/13 04:45:19;;;;;;;;;;;;;;;3.66;56.00;101447.02;117427;1185;23449;-60
2021/11/13 04:47:47;;;;;;;;;;;;;;;3.66;55.93;101446.48;117439;1186;21879;-57
2021/11/13 04:50:16;;;;;;;;;;;;;;;3.65;56.01;101448.88;117411;1185;21838;-61
2021/11/13 04:52:49;;;;;;;;;;;;;;;3.70;56.04;101448.19;117376;1182;21829;-60
2021/11/13 04:55:17;;;;;;;;;;;;;;;3.76;56.18;101447.84;117453;1186;23361;-61
2021/11/13 04:57:53;;;;;;;;;;;;;;;3.81;56.32;101450.45;117382;1182;23426;-60
2021/11/13 05:00:23;;;;;;;;;;;;;;;3.92;56.25;101449.10;117523;1183;21953;-59
2021/11/13 05:02:51;;;;;;;;;;;;;;;4.00;56.25;101448.27;117571;1185;23603;-60
2021/11/13 05:05:19;;;;;;;;;;;;;;;4.08;56.13;101452.00;117549;1186;21835;-59
2021/11/13 05:07:47;;;;;;;;;;;;;;;4.16;56.04;101454.34;117555;1185;23441;-59
2021/11/13 05:10:15;;;;;;;;;;;;;;;4.23;56.36;101462.54;117521;1185;23427;-59
2021/11/13 05:12:44;;;;;;;;;;;;;;;4.28;56.25;101461.64;117491;1185;22921;-59
2021/11/13 05:15:16;;;;;;;;;;;;;;;4.31;56.20;101460.02;117518;1185;21826;-59
2021/11/13 05:17:45;;;;;;;;;;;;;;;4.35;56.17;101463.62;117406;1186;21873;-59
2021/11/13 05:20:13;;;;;;;;;;;;;;;4.38;56.06;101466.48;117377;1176;23548;-59
2021/11/13 05:22:42;;;;;;;;;;;;;;;4.42;56.16;101470.06;117422;1182;22916;-60
2021/11/13 05:25:11;;;;;;;;;;;;;;;4.47;56.27;101475.77;117451;1182;21829;-60
2021/11/13 05:27:39;;;;;;;;;;;;;;;4.50;56.33;101475.70;117495;1184;21897;-61
2021/11/13 05:30:08;;;;;;;;;;;;;;;4.52;56.05;101484.27;117467;1179;21841;-58
2021/11/13 05:32:37;;;;;;;;;;;;;;;4.51;56.09;101488.94;117422;1183;23741;-60
2021/11/13 05:35:06;;;;;;;;;;;;;;;4.49;56.08;101488.37;117681;1182;23432;-59
2021/11/13 05:37:35;;;;;;;;;;;;;;;4.47;56.03;101494.90;117391;1183;21844;-60
2021/11/13 05:40:04;;;;;;;;;;;;;;;4.46;56.30;101497.98;117427;1186;21835;-60
2021/11/13 05:42:35;;;;;;;;;;;;;;;4.47;56.12;101499.77;117374;1182;23528;-59
2021/11/13 05:45:03;;;;;;;;;;;;;;;4.49;56.01;101504.53;117402;1182;22917;-58
2021/11/13 05:47:36;;;;;;;;;;;;;;;4.54;55.99;101504.31;117429;1186;23452;-60
2021/11/13 05:50:05;;;;;;;;;;;;;;;4.57;56.25;101505.64;117409;1185;21835;-60
2021/11/13 05:52:35;;;;;;;;;;;;;;;4.59;56.14;101505.20;117408;1183;22845;-60
2021/11/13 05:55:03;;;;;;;;;;;;;;;4.63;56.26;101504.23;117571;1184;22803;-61
2021/11/13 05:57:31;;;;;;;;;;;;;;;4.67;56.39;101507.84;117450;1184;23525;-61
2021/11/13 06:00:21;;;;;;;;;;;;;;;4.75;56.37;101506.68;117473;1186;22922;-59
2021/11/13 06:02:49;;;;;;;;;;;;;;;4.82;56.47;101511.25;117444;1186;21841;-60
2021/11/13 06:05:17;;;;;;;;;;;;;;;4.90;56.46;101514.23;117457;1185;23429;-61
2021/11/13 06:07:46;;;;;;;;;;;;;;;4.98;56.46;101515.19;117401;1183;23422;-59
2021/11/13 06:10:14;;;;;;;;;;;;;;;5.05;56.19;101520.10;117577;1186;21845;-60
2021/11/13 06:12:43;;;;;;;;;;;;;;;5.15;56.54;101524.18;117541;1182;24143;-62
2021/11/13 06:15:11;;;;;;;;;;;;;;;5.26;56.46;101527.11;117587;1185;21835;-62
2021/11/13 06:17:39;;;;;;;;;;;;;;;5.37;56.44;101525.83;117555;1186;22911;-60
2021/11/13 06:20:08;;;;;;;;;;;;;;;5.48;56.46;101528.73;117617;1185;22774;-61
2021/11/13 06:22:37;;;;;;;;;;;;;;;5.57;56.61;101534.03;117546;1184;23436;-59
2021/11/13 06:25:06;;;;;;;;;;;;;;;5.66;56.68;101536.04;117439;1182;24129;-60
2021/11/13 06:27:35;;;;;;;;;;;;;;;5.75;56.79;101534.17;117532;1182;23003;-61
2021/11/13 06:30:04;;;;;;;;;;;;;;;5.85;56.61;101535.29;117486;1182;23350;-60
2021/11/13 06:32:32;;;;;;;;;;;;;;;5.92;56.78;101532.52;118637;1184;23620;-61
2021/11/13 06:35:01;;;;;;;;;;;;;;;6.03;56.82;101527.25;117490;1185;23445;-61
2021/11/13 06:37:29;;;;;;;;;;;;;;;6.14;56.73;101529.77;117527;1180;24134;-59
2021/11/13 06:39:58;;;;;;;;;;;;;;;6.24;56.73;101525.48;117549;1183;22359;-61
2021/11/13 06:42:26;;;;;;;;;;;;;;;6.33;56.72;101528.99;117452;1185;21838;-59
2021/11/13 06:44:54;;;;;;;;;;;;;;;6.44;56.86;101526.82;117464;1182;21839;-62
2021/11/13 06:47:23;;;;;;;;;;;;;;;6.56;56.67;101531.09;117322;1182;21837;-60
2021/11/13 06:49:51;;;;;;;;;;;;;;;6.64;56.89;101531.44;117387;1185;22983;-62
2021/11/13 06:52:19;;;;;;;;;;;;;;;6.70;56.83;101528.95;117427;1185;23413;-62
2021/11/13 06:54:47;;;;;;;;;;;;;;;6.79;56.85;101529.52;117369;1186;22819;-58
2021/11/13 06:57:15;;;;;;;;;;;;;;;6.81;56.85;101523.10;117358;1186;21832;-62
2021/11/13 06:59:44;;;;;;;;;;;;;;;6.88;57.11;101522.73;117357;1182;23453;-58
2021/11/13 07:02:12;;;;;;;;;;;;;;;7.00;57.13;101518.77;117350;1185;21853;-63
2021/11/13 07:04:45;;;;;;;;;;;;;;;7.12;56.93;101520.95;117324;1186;23452;-62
2021/11/13 07:07:13;;;;;;;;;;;;;;;7.24;57.20;101520.67;117424;1185;21844;-62
2021/11/13 07:09:41;;;;;;;;;;;;;;;7.33;57.02;101522.92;117333;1185;21850;-57
2021/11/13 07:12:11;;;;;;;;;;;;;;;7.45;57.08;101516.53;117473;1183;24223;-62
2021/11/13 07:14:39;;;;;;;;;;;;;;;7.60;57.33;101517.84;117420;1184;23420;-58
2021/11/13 07:17:08;;;;;;;;;;;;;;;7.74;57.45;101519.67;117453;1183;23535;-63
2021/11/13 07:19:36;;;;;;;;;;;;;;;7.89;57.35;101521.85;117434;1185;22913;-58
2021/11/13 07:22:04;;;;;;;;;;;;;;;8.04;57.19;101523.86;117426;1185;23459;-58
2021/11/13 07:24:32;;;;;;;;;;;;;;;8.21;57.44;101526.20;117465;1185;23471;-63
2021/11/13 07:27:00;;;;;;;;;;;;;;;8.39;57.51;101522.98;117321;1182;22919;-57
2021/11/13 07:29:29;;;;;;;;;;;;;;;8.55;57.55;101524.82;118911;1183;23433;-58
2021/11/13 07:31:57;;;;;;;;;;;;;;;8.71;57.60;101525.76;117484;1182;22956;-59
2021/11/13 07:34:25;;;;;;;;;;;;;;;8.84;57.41;101522.43;117431;1183;21838;-58
2021/11/13 07:36:54;;;;;;;;;;;;;;;8.96;57.50;101521.19;117445;1185;23425;-59
2021/11/13 07:39:22;;;;;;;;;;;;;;;9.12;57.64;101520.85;117376;1185;21838;-63
2021/11/13 07:41:51;;;;;;;;;;;;;;;9.25;57.54;101522.58;117477;1183;23091;-58
2021/11/13 07:44:19;;;;;;;;;;;;;;;9.36;57.59;101519.55;117415;1185;21842;-64
2021/11/13 07:46:47;;;;;;;;;;;;;;;9.52;57.53;101518.48;117521;1186;23426;-64
2021/11/13 07:49:15;;;;;;;;;;;;;;;9.68;57.71;101519.52;117474;1182;21852;-60
2021/11/13 07:51:43;;;;;;;;;;;;;;;9.83;57.67;101520.19;117438;1185;23426;-58
2021/11/13 07:54:11;;;;;;;;;;;;;;;9.93;57.62;101513.97;117316;1186;21841;-63
2021/11/13 07:56:40;;;;;;;;;;;;;;;10.01;57.61;101512.45;117330;1185;21909;-58
2021/11/13 07:59:13;;;;;;;;;;;;;;;10.08;57.63;101515.85;117370;1183;23435;-57
2021/11/13 08:01:42;;;;;;;;;;;;;;;10.22;57.70;101519.80;117312;1179;21882;-64
2021/11/13 08:04:10;;;;;;;;;;;;;;;10.33;57.72;101522.17;117283;1186;23813;-65
2021/11/13 08:06:40;;;;;;;;;;;;;;;10.44;57.69;101524.21;117376;1185;22708;-64
2021/11/13 08:09:09;;;;;;;;;;;;;;;10.56;57.82;101524.28;117446;1186;23891;-63
2021/11/13 08:11:38;;;;;;;;;;;;;;;10.69;57.68;101522.95;117282;1186;21849;-59
2021/11/13 08:14:06;;;;;;;;;;;;;;;10.83;57.68;101528.11;117303;1185;21842;-64
2021/11/13 08:16:54;;;;;;;;;;;;;;;10.97;57.63;101529.76;117335;1186;22163;-59
2021/11/13 08:19:22;;;;;;;;;;;;;;;11.11;57.76;101535.25;117223;1185;23625;-62
2021/11/13 08:21:50;;;;;;;;;;;;;;;11.25;57.85;101533.91;117400;1186;23429;-64
2021/11/13 08:24:20;;;;;;;;;;;;;;;11.39;57.89;101539.04;117267;1188;21849;-64
2021/11/13 08:26:53;;;;;;;;;;;;;;;11.54;57.92;101536.98;117274;1186;21967;-64
2021/11/13 08:29:22;;;;;;;;;;;;;;;11.67;58.09;101535.08;117324;1186;23453;-64
2021/11/13 08:31:50;;;;;;;;;;;;;;;11.82;58.08;101538.08;117412;1186;22610;-59
2021/11/13 08:34:19;;;;;;;;;;;;;;;11.96;57.88;101541.09;117374;1183;23448;-64
2021/11/13 08:36:48;;;;;;;;;;;;;;;12.05;58.03;101539.37;117361;1186;23450;-64
2021/11/13 08:39:16;;;;;;;;;;;;;;;12.16;57.89;101536.55;117403;1186;21841;-64
2021/11/13 08:41:44;;;;;;;;;;;;;;;12.28;57.84;101535.66;117277;1186;22609;-59
2021/11/13 08:44:12;;;;;;;;;;;;;;;12.39;57.75;101537.22;117275;1186;21842;-64
2021/11/13 08:46:40;;;;;;;;;;;;;;;12.48;57.90;101537.57;117245;1185;21857;-60
2021/11/13 08:49:08;;;;;;;;;;;;;;;12.59;57.92;101534.90;117400;1185;21844;-64
2021/11/13 08:51:36;;;;;;;;;;;;;;;12.70;58.07;101534.16;117359;1186;21841;-64
2021/11/13 08:54:05;;;;;;;;;;;;;;;12.79;57.98;101526.40;117441;1182;23459;-59
2021/11/13 08:56:33;;;;;;;;;;;;;;;12.88;57.93;101523.55;117488;1185;23426;-59
2021/11/13 08:59:03;;;;;;;;;;;;;;;12.97;58.01;101524.58;117434;1185;22900;-60
2021/11/13 09:01:31;;;;;;;;;;;;;;;13.22;57.52;101524.29;117481;1183;23442;-59
2021/11/13 09:04:00;;;;;;;;;;;;;;;13.40;57.55;101518.03;117457;1184;21839;-60
2021/11/13 09:06:48;;;;;;;;;;;;;;;13.57;57.39;101514.59;117384;1186;21840;-60
2021/11/13 09:09:16;;;;;;;;;;;;;;;13.71;57.46;101511.51;117436;1176;23445;-59
2021/11/13 09:12:05;;;;;;;;;;;;;;;13.79;57.61;101507.92;117366;1186;22906;-60
2021/11/13 09:14:37;;;;;;;;;;;;;;;13.74;57.91;101512.90;117343;1186;23448;-60
2021/11/13 09:17:06;;;;;;;;;;;;;;;13.85;58.10;101511.58;117377;1183;23455;-64
2021/11/13 09:19:55;;;;;;;;;;;;;;;13.97;58.12;101509.36;117346;1182;24165;-59
2021/11/13 09:22:23;;;;;;;;;;;;;;;14.08;58.11;101513.16;117426;1182;23458;-59
2021/11/13 09:24:53;;;;;;;;;;;;;;;14.18;58.26;101511.47;117366;1183;22978;-63
2021/11/13 09:27:22;;;;;;;;;;;;;;;14.31;58.40;101508.72;117521;1183;21846;-59
2021/11/13 09:29:50;;;;;;;;;;;;;;;14.48;58.38;101502.70;117407;1185;23526;-64
2021/11/13 09:32:19;;;;;;;;;;;;;;;14.62;58.40;101500.27;117431;1186;21838;-59
2021/11/13 09:34:47;;;;;;;;;;;;;;;14.78;58.41;101500.10;117426;1183;23416;-60
2021/11/13 09:37:16;;;;;;;;;;;;;;;14.98;58.45;101501.11;117441;1186;23426;-59
2021/11/13 09:39:45;;;;;;;;;;;;;;;15.36;57.96;101495.11;117402;1186;23452;-65
2021/11/13 09:42:13;;;;;;;;;;;;;;;15.56;57.96;101496.39;117463;1186;23548;-65
2021/11/13 09:44:41;;;;;;;;;;;;;;;15.75;57.95;101493.11;117427;1185;21839;-60
2021/11/13 09:47:11;;;;;;;;;;;;;;;15.94;57.93;101493.70;117469;1183;22958;-60
2021/11/13 09:49:39;;;;;;;;;;;;;;;16.10;57.88;101496.10;117417;1182;21832;-61
2021/11/13 09:52:08;;;;;;;;;;;;;;;16.24;57.82;101498.33;117363;1189;22023;-62
2021/11/13 09:54:36;;;;;;;;;;;;;;;16.40;57.74;101496.08;117422;1176;21848;-62
2021/11/13 09:57:04;;;;;;;;;;;;;;;16.53;57.70;101494.79;117357;1186;21829;-65
2021/11/13 09:59:32;;;;;;;;;;;;;;;16.65;57.66;101493.84;117383;1185;22167;-65
2021/11/13 10:02:03;;;;;;;;;;;;;;;16.78;57.64;101494.82;117392;1185;23797;-60
2021/11/13 10:04:36;;;;;;;;;;;;;;;16.91;57.57;101489.95;117407;1185;23422;-60
2021/11/13 10:07:06;;;;;;;;;;;;;;;17.01;57.61;101491.53;117487;1182;22925;-64
2021/11/13 10:09:35;;;;;;;;;;;;;;;17.12;57.54;101492.37;117401;1183;23541;-60
2021/11/13 10:12:07;;;;;;;;;;;;;;;17.24;57.58;101488.04;117405;1179;23640;-65
2021/11/13 10:14:36;;;;;;;;;;;;;;;17.33;57.67;101491.36;117423;1183;23448;-65
2021/11/13 10:17:25;;;;;;;;;;;;;;;17.47;57.66;101486.98;117360;1185;21853;-60
2021/11/13 10:19:54;;;;;;;;;;;;;;;17.58;57.58;101486.71;117427;1188;21842;-60
2021/11/13 10:22:23;;;;;;;;;;;;;;;17.70;57.49;101488.20;117463;1182;23465;-60
2021/11/13 10:24:56;;;;;;;;;;;;;;;17.81;57.56;101480.66;117404;1176;21871;-64
2021/11/13 10:27:26;;;;;;;;;;;;;;;17.90;57.45;101479.73;117491;1183;23453;-66
2021/11/13 10:29:54;;;;;;;;;;;;;;;18.01;57.46;101482.68;117449;1182;24123;-60
2021/11/13 10:32:22;;;;;;;;;;;;;;;18.09;57.47;101475.89;117442;1186;21849;-65
2021/11/13 10:34:54;;;;;;;;;;;;;;;18.21;57.47;101475.92;117442;1182;23426;-65
2021/11/13 10:37:23;;;;;;;;;;;;;;;18.29;57.46;101473.95;117474;1186;22100;-62
2021/11/13 10:39:56;;;;;;;;;;;;;;;18.35;57.34;101475.73;117399;1182;23436;-58
2021/11/13 10:42:24;;;;;;;;;;;;;;;18.42;57.33;101476.80;117463;1182;22915;-58
2021/11/13 10:45:02;;;;;;;;;;;;;;;18.46;57.27;101474.55;117344;1184;23525;-63
2021/11/13 10:47:32;;;;;;;;;;;;;;;18.51;57.42;101470.67;117401;1185;23434;-61
2021/11/13 10:50:16;;;;;;;;;;;;;;;18.55;57.29;101471.30;117388;1183;22919;-58
2021/11/13 10:52:58;;;;;;;;;;;;;;;18.62;57.30;101475.16;117357;1185;23537;-62
2021/11/13 10:55:29;;;;;;;;;;;;;;;18.66;57.22;101475.42;117345;1182;23795;-63
2021/11/13 10:58:18;;;;;;;;;;;;;;;18.68;57.30;101476.96;117319;1185;21842;-63
2021/11/13 11:00:51;;;;;;;;;;;;;;;18.75;57.20;101474.64;117409;1182;24220;-63
2021/11/13 11:03:20;;;;;;;;;;;;;;;18.76;57.08;101469.45;117460;1182;23535;-59
2021/11/13 11:05:51;;;;;;;;;;;;;;;18.79;57.16;101467.57;117551;1182;21839;-59
2021/11/13 11:08:26;;;;;;;;;;;;;;;18.85;57.23;101465.80;117427;1179;22635;-63
2021/11/13 11:11:25;;;;;;;;;;;;;;;18.85;57.24;101467.94;117337;1186;21845;-60
2021/11/13 11:13:54;;;;;;;;;;;;;;;18.89;57.17;101467.27;117425;1182;21892;-59
2021/11/13 11:16:36;;;;;;;;;;;;;;;18.89;57.06;101464.78;117354;1182;23414;-63
2021/11/13 11:19:09;;;;;;;;;;;;;;;18.86;56.90;101467.91;117360;1182;23538;-63
2021/11/13 11:21:37;;;;;;;;;;;;;;;18.84;57.11;101468.33;117405;1183;21829;-63
2021/11/13 11:24:08;;;;;;;;;;;;;;;18.87;57.13;101470.70;117434;1183;23558;-62
2021/11/13 11:26:38;;;;;;;;;;;;;;;18.92;56.98;101469.88;117405;1185;22954;-62
2021/11/13 11:29:06;;;;;;;;;;;;;;;18.83;56.69;101464.08;117421;1186;21842;-62
2021/11/13 11:31:48;;;;;;;;;;;;;;;18.79;56.84;101465.61;117410;1183;23426;-64
2021/11/13 11:34:32;;;;;;;;;;;;;;;18.80;56.79;101467.71;117459;1182;22455;-61
2021/11/13 11:37:05;;;;;;;;;;;;;;;18.79;56.82;101465.07;117428;1183;21872;-62
2021/11/13 11:39:33;;;;;;;;;;;;;;;18.81;56.85;101465.91;117406;1186;21842;-62
2021/11/13 11:42:03;;;;;;;;;;;;;;;18.86;56.83;101462.91;117370;1183;21852;-59
2021/11/13 11:44:39;;;;;;;;;;;;;;;18.93;56.87;101460.24;115507;1201;543284;-59
2021/11/13 11:47:09;;;;;;;;;;;;;;;18.91;56.70;101460.27;116947;1189;22913;-59
2021/11/13 11:49:41;;;;;;;;;;;;;;;18.91;56.76;101462.95;117045;1189;22612;-60
2021/11/13 11:52:10;;;;;;;;;;;;;;;18.91;56.68;101460.81;117030;1188;21850;-62
2021/11/13 11:54:42;;;;;;;;;;;;;;;18.87;56.61;101462.52;116991;1188;21835;-63
2021/11/13 11:57:12;;;;;;;;;;;;;;;18.86;56.66;101462.55;117013;1189;21946;-58
2021/11/13 11:59:40;;;;;;;;;;;;;;;18.84;56.61;101458.34;117036;1189;21913;-58
2021/11/13 12:02:16;;;;;;;;;;;;;;;18.78;56.32;101454.45;116813;1188;23537;-58
2021/11/13 12:04:45;;;;;;;;;;;;;;;18.73;56.54;101452.63;117038;1188;21837;-58
2021/11/13 12:07:31;;;;;;;;;;;;;;;18.78;56.59;101453.38;117032;1188;24136;-58
2021/11/13 12:10:20;;;;;;;;;;;;;;;18.83;56.56;101447.00;116866;1189;22171;-63
2021/11/13 12:13:01;;;;;;;;;;;;;;;18.87;56.49;101442.80;116988;1188;21841;-60
2021/11/13 12:15:52;;;;;;;;;;;;;;;18.88;56.40;101447.21;116986;1189;21853;-61
2021/11/13 12:18:44;;;;;;;;;;;;;;;18.75;56.10;101444.04;116996;1188;21846;-59
2021/11/13 12:21:14;;;;;;;;;;;;;;;18.63;56.06;101447.23;116905;1189;23553;-62
2021/11/13 12:24:05;;;;;;;;;;;;;;;18.56;56.18;101447.42;116861;1189;21845;-60
2021/11/13 12:26:35;;;;;;;;;;;;;;;18.51;56.16;101447.95;116966;1188;21841;-61
2021/11/13 12:29:04;;;;;;;;;;;;;;;18.45;56.12;101445.45;117068;1185;23435;-62
2021/11/13 12:31:41;;;;;;;;;;;;;;;18.32;55.82;101442.27;116943;1189;22082;-61
2021/11/13 12:34:13;;;;;;;;;;;;;;;18.12;55.85;101441.89;117462;1182;23423;-62
2021/11/13 12:36:50;;;;;;;;;;;;;;;18.06;56.01;101442.05;117473;1185;22917;-62
2021/11/13 12:39:19;;;;;;;;;;;;;;;18.05;56.08;101442.46;117510;1185;23516;-61
2021/11/13 12:41:56;;;;;;;;;;;;;;;18.05;55.96;101444.56;117551;1182;21842;-60
2021/11/13 12:44:26;;;;;;;;;;;;;;;17.99;56.02;101442.59;117488;1186;23524;-60
2021/11/13 12:47:00;;;;;;;;;;;;;;;17.91;56.02;101444.70;117467;1186;21844;-62
2021/11/13 12:49:32;;;;;;;;;;;;;;;17.82;55.96;101442.99;117463;1186;21842;-60